createdAt,value
2019-01-13T00:00:43.304Z,17.70
2019-01-13T00:03:14.378Z,17.83
2019-01-13T00:05:45.304Z,16.63
2019-01-13T00:08:16.293Z,19.07
2019-01-13T00:10:47.261Z,19.20
2019-01-13T00:13:18.177Z,17.93
2019-01-13T00:15:49.154Z,19.67
2019-01-13T00:18:20.158Z,18.83
2019-01-13T00:20:51.068Z,19.33
2019-01-13T00:23:22.011Z,19.00
2019-01-13T00:25:52.937Z,19.90
2019-01-13T00:28:24.901Z,18.67
2019-01-13T00:30:55.884Z,17.80
2019-01-13T00:33:26.818Z,18.40
2019-01-13T00:35:57.856Z,17.27
2019-01-13T00:38:28.739Z,18.53
2019-01-13T00:40:59.694Z,16.90
2019-01-13T00:43:30.588Z,17.53
2019-01-13T00:46:01.506Z,17.23
2019-01-13T00:48:32.417Z,15.93
2019-01-13T00:51:03.418Z,16.53
2019-01-13T00:53:34.403Z,16.53
2019-01-13T00:56:05.377Z,16.13
2019-01-13T00:58:36.318Z,16.17
2019-01-13T01:01:07.238Z,16.13
2019-01-13T01:03:38.144Z,15.77
2019-01-13T01:06:09.289Z,17.00
2019-01-13T01:08:40.295Z,16.40
2019-01-13T01:11:11.283Z,15.03
2019-01-13T01:13:43.259Z,15.80
2019-01-13T01:16:14.180Z,15.73
2019-01-13T01:18:45.152Z,15.23
2019-01-13T01:21:16.061Z,14.37
2019-01-13T01:23:46.988Z,14.00
2019-01-13T01:26:17.905Z,12.77
2019-01-13T01:28:48.845Z,12.10
2019-01-13T01:31:19.800Z,12.37
2019-01-13T01:33:50.716Z,12.23
2019-01-13T01:36:21.622Z,10.80
2019-01-13T01:38:52.547Z,11.57
2019-01-13T01:41:23.479Z,11.60
2019-01-13T01:43:54.390Z,10.53
2019-01-13T01:46:25.324Z,11.23
2019-01-13T01:48:56.240Z,11.03
2019-01-13T01:51:27.156Z,10.60
2019-01-13T01:53:58.075Z,11.40
2019-01-13T01:56:30.178Z,10.30
2019-01-13T01:59:01.130Z,11.47
2019-01-13T02:01:32.051Z,10.53
2019-01-13T02:04:02.971Z,10.80
2019-01-13T02:06:33.915Z,10.87
2019-01-13T02:09:06.931Z,10.50
2019-01-13T02:11:37.852Z,10.37
2019-01-13T02:14:08.911Z,10.03
2019-01-13T02:16:39.828Z,10.50
2019-01-13T02:19:10.802Z,11.50
2019-01-13T02:21:41.712Z,11.37
2019-01-13T02:24:12.639Z,12.37
2019-01-13T02:26:43.565Z,12.10
2019-01-13T02:29:14.534Z,11.17
2019-01-13T02:31:46.537Z,12.60
2019-01-13T02:34:17.467Z,12.73
2019-01-13T02:36:48.918Z,12.30
2019-01-13T02:39:19.870Z,12.53
2019-01-13T02:41:50.798Z,13.03
2019-01-13T02:44:21.728Z,13.10
2019-01-13T02:46:52.662Z,12.57
2019-01-13T02:49:23.577Z,12.73
2019-01-13T02:51:54.534Z,12.90
2019-01-13T02:54:25.563Z,11.47
2019-01-13T02:56:56.508Z,12.00
2019-01-13T02:59:27.460Z,11.83
2019-01-13T03:01:58.386Z,11.70
2019-01-13T03:04:29.347Z,11.00
2019-01-13T03:07:00.260Z,11.63
2019-01-13T03:09:31.245Z,12.90
2019-01-13T03:12:02.180Z,11.97
2019-01-13T03:14:33.112Z,11.83
2019-01-13T03:17:04.042Z,11.80
2019-01-13T03:19:34.975Z,10.90
2019-01-13T03:22:05.886Z,11.40
2019-01-13T03:24:38.004Z,10.50
2019-01-13T03:27:09.022Z,10.73
2019-01-13T03:29:39.978Z,10.70
2019-01-13T03:32:10.926Z,9.83
2019-01-13T03:34:42.926Z,9.67
2019-01-13T03:37:13.826Z,9.63
2019-01-13T03:39:44.757Z,9.47
2019-01-13T03:42:15.736Z,9.17
2019-01-13T03:44:46.678Z,9.70
2019-01-13T03:47:17.583Z,8.60
2019-01-13T03:49:48.518Z,8.13
2019-01-13T03:52:19.420Z,8.17
2019-01-13T03:54:50.389Z,7.23
2019-01-13T03:57:21.291Z,6.73
2019-01-13T03:59:52.182Z,7.40
2019-01-13T04:02:23.115Z,7.70
2019-01-13T04:04:54.019Z,7.43
2019-01-13T04:07:26.042Z,6.70
2019-01-13T04:09:56.949Z,6.23
2019-01-13T04:12:28.032Z,6.03
2019-01-13T04:14:58.938Z,6.43
2019-01-13T04:17:29.905Z,5.87
2019-01-13T04:20:00.847Z,5.80
2019-01-13T04:22:31.805Z,6.07
2019-01-13T04:25:02.717Z,6.07
2019-01-13T04:27:33.674Z,5.07
2019-01-13T04:30:05.184Z,5.70
2019-01-13T04:32:36.174Z,5.63
2019-01-13T04:35:07.776Z,5.13
2019-01-13T04:37:38.722Z,5.50
2019-01-13T04:40:09.727Z,5.70
2019-01-13T04:42:40.696Z,5.77
2019-01-13T04:45:11.757Z,5.60
2019-01-13T04:47:42.697Z,5.33
2019-01-13T04:50:13.653Z,5.00
2019-01-13T04:52:44.549Z,5.10
2019-01-13T04:55:15.489Z,5.50
2019-01-13T04:57:47.573Z,4.70
2019-01-13T05:00:19.590Z,4.63
2019-01-13T05:02:50.522Z,4.60
2019-01-13T05:05:21.446Z,4.73
2019-01-13T05:07:52.362Z,4.70
2019-01-13T05:10:23.314Z,4.20
2019-01-13T05:12:54.207Z,3.80
2019-01-13T05:15:25.150Z,3.07
2019-01-13T05:17:56.085Z,2.80
2019-01-13T05:20:28.228Z,2.80
2019-01-13T05:22:59.141Z,2.40
2019-01-13T05:25:31.234Z,2.10
2019-01-13T05:28:02.137Z,2.20
2019-01-13T05:30:33.073Z,2.20
2019-01-13T05:33:03.980Z,1.50
2019-01-13T05:35:34.884Z,1.60
2019-01-13T05:38:05.819Z,1.60
2019-01-13T05:40:36.822Z,1.60
2019-01-13T05:43:07.812Z,1.47
2019-01-13T05:45:38.778Z,1.43
2019-01-13T05:48:09.709Z,1.50
2019-01-13T05:50:40.678Z,1.33
2019-01-13T05:53:11.700Z,1.80
2019-01-13T05:55:42.698Z,1.50
2019-01-13T05:58:13.609Z,1.70
2019-01-13T06:00:44.748Z,1.80
2019-01-13T06:03:15.654Z,2.20
2019-01-13T06:05:46.582Z,2.10
2019-01-13T06:08:17.507Z,1.87
2019-01-13T06:10:48.440Z,2.20
2019-01-13T06:13:19.353Z,2.10
2019-01-13T06:15:50.306Z,2.10
2019-01-13T06:18:21.219Z,2.20
2019-01-13T06:20:52.142Z,2.17
2019-01-13T06:23:23.037Z,2.00
2019-01-13T06:25:53.933Z,2.07
2019-01-13T06:28:24.849Z,2.40
2019-01-13T06:30:55.760Z,2.47
2019-01-13T06:33:26.673Z,2.20
2019-01-13T06:35:59.119Z,2.60
2019-01-13T06:38:29.980Z,2.40
2019-01-13T06:41:00.887Z,2.70
2019-01-13T06:43:31.780Z,2.37
2019-01-13T06:46:02.698Z,2.80
2019-01-13T06:48:33.632Z,2.30
2019-01-13T06:51:04.539Z,2.30
2019-01-13T06:53:35.436Z,2.30
2019-01-13T06:56:06.369Z,2.13
2019-01-13T06:58:37.307Z,2.33
2019-01-13T07:01:08.242Z,2.60
2019-01-13T07:03:39.152Z,2.60
2019-01-13T07:06:10.072Z,2.63
2019-01-13T07:08:41.008Z,2.70
2019-01-13T07:11:11.928Z,2.90
2019-01-13T07:13:42.817Z,2.40
2019-01-13T07:16:15.639Z,3.30
2019-01-13T07:18:46.679Z,3.13
2019-01-13T07:21:17.653Z,2.77
2019-01-13T07:23:48.632Z,2.77
2019-01-13T07:26:19.596Z,2.73
2019-01-13T07:28:50.501Z,2.30
2019-01-13T07:31:21.457Z,2.87
2019-01-13T07:33:52.363Z,2.83
2019-01-13T07:36:23.300Z,2.50
2019-01-13T07:38:54.208Z,2.33
2019-01-13T07:41:25.175Z,2.10
2019-01-13T07:43:56.137Z,1.87
2019-01-13T07:46:27.091Z,1.50
2019-01-13T07:48:58.129Z,1.80
2019-01-13T07:51:29.073Z,1.90
2019-01-13T07:54:00.060Z,1.80
2019-01-13T07:56:31.024Z,1.63
2019-01-13T07:59:02.007Z,1.63
2019-01-13T08:01:32.941Z,1.53
2019-01-13T08:04:03.863Z,1.70
2019-01-13T08:06:34.846Z,1.77
2019-01-13T08:09:08.676Z,1.90
2019-01-13T08:11:39.618Z,2.00
2019-01-13T08:14:10.669Z,1.90
2019-01-13T08:16:41.610Z,1.93
2019-01-13T08:19:12.508Z,1.77
2019-01-13T08:21:44.015Z,1.80
2019-01-13T08:24:14.992Z,1.97
2019-01-13T08:26:45.888Z,2.37
2019-01-13T08:29:17.934Z,2.03
2019-01-13T08:31:48.889Z,2.10
2019-01-13T08:34:19.809Z,2.30
2019-01-13T08:36:50.742Z,2.40
2019-01-13T08:39:21.714Z,2.40
2019-01-13T08:41:52.622Z,2.50
2019-01-13T08:44:23.609Z,3.70
2019-01-13T08:46:54.532Z,42.23
2019-01-13T08:49:25.497Z,3.77
2019-01-13T08:51:56.419Z,3.67
2019-01-13T08:54:27.317Z,4.00
2019-01-13T08:56:58.332Z,9.77
2019-01-13T08:59:29.336Z,5.00
2019-01-13T09:02:00.289Z,4.43
2019-01-13T09:04:31.316Z,4.80
2019-01-13T09:07:02.348Z,4.80
2019-01-13T09:09:33.247Z,5.90
2019-01-13T09:12:04.162Z,5.00
2019-01-13T09:14:35.161Z,4.90
2019-01-13T09:17:07.067Z,5.37
2019-01-13T09:19:38.010Z,4.80
2019-01-13T09:22:08.929Z,5.27
2019-01-13T09:24:39.979Z,5.53
2019-01-13T09:27:10.867Z,6.77
2019-01-13T09:29:42.502Z,6.20
2019-01-13T09:32:13.664Z,6.57
2019-01-13T09:34:44.594Z,6.37
2019-01-13T09:37:16.818Z,7.20
2019-01-13T09:39:47.779Z,7.70
2019-01-13T09:42:18.775Z,7.60
2019-01-13T09:44:49.729Z,7.70
2019-01-13T09:47:21.712Z,7.70
2019-01-13T09:49:52.747Z,7.83
2019-01-13T09:52:23.673Z,7.67
2019-01-13T09:54:54.703Z,7.87
2019-01-13T09:57:25.598Z,7.50
2019-01-13T09:59:56.589Z,8.07
2019-01-13T10:02:27.622Z,7.37
2019-01-13T10:04:58.906Z,8.10
2019-01-13T10:07:29.822Z,6.97
2019-01-13T10:10:00.789Z,7.60
2019-01-13T10:12:31.768Z,7.43
2019-01-13T10:15:02.780Z,7.47
2019-01-13T10:17:33.766Z,6.73
2019-01-13T10:20:05.278Z,7.17
2019-01-13T10:22:36.273Z,7.37
2019-01-13T10:25:07.783Z,7.20
2019-01-13T10:27:39.206Z,7.10
2019-01-13T10:30:16.059Z,7.03
2019-01-13T10:32:54.496Z,6.87
2019-01-13T10:35:20.846Z,7.27
2019-01-13T10:37:51.881Z,7.03
2019-01-13T10:40:25.097Z,6.43
2019-01-13T10:42:56.089Z,6.73
2019-01-13T10:45:27.238Z,6.27
2019-01-13T10:47:58.245Z,5.97
2019-01-13T10:50:33.051Z,6.03
2019-01-13T10:53:08.743Z,6.40
2019-01-13T10:55:39.754Z,6.10
2019-01-13T10:58:10.749Z,6.60
2019-01-13T11:00:41.781Z,6.70
2019-01-13T11:03:12.761Z,6.50
2019-01-13T11:05:43.811Z,5.83
2019-01-13T11:08:14.790Z,6.33
2019-01-13T11:10:45.830Z,6.30
2019-01-13T11:13:16.835Z,5.90
2019-01-13T11:15:47.758Z,6.47
2019-01-13T11:18:18.737Z,6.50
2019-01-13T11:20:50.086Z,6.13
2019-01-13T11:23:21.068Z,6.30
2019-01-13T11:25:52.075Z,6.37
2019-01-13T11:28:22.971Z,7.00
2019-01-13T11:30:53.962Z,7.10
2019-01-13T11:33:24.929Z,6.53
2019-01-13T11:35:55.952Z,7.17
2019-01-13T11:38:26.869Z,6.03
2019-01-13T11:40:57.844Z,6.33
2019-01-13T11:43:28.768Z,6.53
2019-01-13T11:45:59.688Z,6.53
2019-01-13T11:48:30.637Z,6.70
2019-01-13T11:51:01.569Z,5.83
2019-01-13T11:53:32.514Z,6.07
2019-01-13T11:56:04.470Z,5.77
2019-01-13T11:58:35.414Z,6.10
2019-01-13T12:01:07.266Z,6.83
2019-01-13T12:03:38.219Z,6.93
2019-01-13T12:06:09.150Z,7.00
2019-01-13T12:08:40.093Z,7.07
2019-01-13T12:11:11.184Z,6.60
2019-01-13T12:13:42.173Z,6.73
2019-01-13T12:16:13.083Z,7.37
2019-01-13T12:18:44.091Z,7.53
2019-01-13T12:21:15.154Z,6.80
2019-01-13T12:23:46.067Z,5.80
2019-01-13T12:26:16.999Z,6.93
2019-01-13T12:28:47.999Z,5.93
2019-01-13T12:31:18.951Z,5.73
2019-01-13T12:33:49.853Z,5.73
2019-01-13T12:36:20.863Z,5.57
2019-01-13T12:38:51.788Z,5.97
2019-01-13T12:41:22.793Z,5.20
2019-01-13T12:43:53.872Z,5.37
2019-01-13T12:46:24.872Z,5.70
2019-01-13T12:48:55.795Z,5.03
2019-01-13T12:51:26.759Z,6.00
2019-01-13T12:53:57.687Z,5.00
2019-01-13T12:56:28.650Z,5.63
2019-01-13T12:58:59.622Z,5.40
2019-01-13T13:01:30.558Z,5.80
2019-01-13T13:04:01.585Z,5.43
2019-01-13T13:06:33.557Z,5.17
2019-01-13T13:09:08.441Z,5.70
2019-01-13T13:11:39.657Z,5.97
2019-01-13T13:14:10.700Z,5.67
2019-01-13T13:16:41.690Z,6.27
2019-01-13T13:19:12.938Z,5.10
2019-01-13T13:21:43.901Z,5.03
2019-01-13T13:24:15.873Z,4.47
2019-01-13T13:26:46.794Z,4.77
2019-01-13T13:29:17.796Z,5.13
2019-01-13T13:31:48.706Z,4.67
2019-01-13T13:34:19.700Z,4.80
2019-01-13T13:36:50.747Z,4.23
2019-01-13T13:39:21.765Z,4.60
2019-01-13T13:41:52.688Z,4.03
2019-01-13T13:44:23.609Z,4.33
2019-01-13T13:46:54.517Z,4.13
2019-01-13T13:49:25.454Z,4.13
2019-01-13T13:51:56.353Z,4.73
2019-01-13T13:54:27.270Z,3.90
2019-01-13T13:56:58.430Z,4.10
2019-01-13T13:59:29.381Z,4.00
2019-01-13T14:02:00.351Z,3.73
2019-01-13T14:04:31.548Z,4.10
2019-01-13T14:07:02.566Z,4.00
2019-01-13T14:09:33.504Z,3.90
2019-01-13T14:12:04.497Z,3.87
2019-01-13T14:14:35.419Z,3.80
2019-01-13T14:17:06.370Z,3.50
2019-01-13T14:19:37.305Z,3.47
2019-01-13T14:22:08.293Z,3.63
2019-01-13T14:24:39.213Z,3.77
2019-01-13T14:27:10.153Z,4.07
2019-01-13T14:29:41.106Z,4.47
2019-01-13T14:32:12.111Z,4.70
2019-01-13T14:34:43.140Z,5.30
2019-01-13T14:37:14.135Z,6.20
2019-01-13T14:39:48.887Z,5.83
2019-01-13T14:42:18.075Z,6.40
2019-01-13T14:44:49.135Z,5.50
2019-01-13T14:47:20.114Z,4.60
2019-01-13T14:49:51.325Z,5.93
2019-01-13T14:52:22.334Z,6.03
2019-01-13T14:54:53.453Z,5.60
2019-01-13T14:57:24.463Z,5.90
2019-01-13T14:59:55.390Z,5.37
2019-01-13T15:02:26.296Z,4.50
2019-01-13T15:04:57.219Z,4.97
2019-01-13T15:07:28.294Z,5.27
2019-01-13T15:10:00.184Z,6.50
2019-01-13T15:12:31.187Z,5.60
2019-01-13T15:15:06.922Z,5.70
2019-01-13T15:17:38.531Z,6.63
2019-01-13T15:20:11.975Z,7.10
2019-01-13T15:22:43.007Z,7.37
2019-01-13T15:25:17.036Z,8.57
2019-01-13T15:27:48.761Z,8.80
2019-01-13T15:30:38.850Z,9.00
2019-01-13T15:33:10.837Z,8.53
2019-01-13T15:35:42.872Z,9.13
2019-01-13T15:38:13.843Z,8.60
2019-01-13T15:40:44.768Z,8.77
2019-01-13T15:43:15.778Z,8.63
2019-01-13T15:45:46.666Z,9.30
2019-01-13T15:48:17.683Z,8.93
2019-01-13T15:50:48.764Z,9.13
2019-01-13T15:53:19.724Z,8.17
2019-01-13T15:55:50.700Z,9.97
2019-01-13T15:58:21.660Z,8.87
2019-01-13T16:00:52.653Z,8.90
2019-01-13T16:03:23.608Z,7.90
2019-01-13T16:05:54.519Z,8.50
2019-01-13T16:08:25.423Z,8.43
2019-01-13T16:10:56.403Z,8.13
2019-01-13T16:13:27.400Z,8.67
2019-01-13T16:15:58.331Z,8.13
2019-01-13T16:18:29.264Z,8.47
2019-01-13T16:21:00.262Z,8.97
2019-01-13T16:23:31.234Z,8.90
2019-01-13T16:26:03.320Z,8.50
2019-01-13T16:28:34.238Z,9.43
2019-01-13T16:31:05.242Z,9.03
2019-01-13T16:33:37.397Z,9.80
2019-01-13T16:36:08.366Z,10.13
2019-01-13T16:38:39.316Z,9.87
2019-01-13T16:41:10.319Z,10.33
2019-01-13T16:43:41.290Z,11.07
2019-01-13T16:46:12.236Z,10.53
2019-01-13T16:48:43.289Z,12.00
2019-01-13T16:51:14.222Z,10.37
2019-01-13T16:53:45.207Z,10.17
2019-01-13T16:56:16.109Z,10.80
2019-01-13T16:58:47.127Z,10.90
2019-01-13T17:01:18.399Z,10.83
2019-01-13T17:03:49.428Z,11.57
2019-01-13T17:06:20.657Z,10.03
2019-01-13T17:08:51.664Z,11.00
2019-01-13T17:11:22.694Z,11.90
2019-01-13T17:13:53.592Z,10.97
2019-01-13T17:16:24.506Z,11.23
2019-01-13T17:18:55.443Z,10.27
2019-01-13T17:21:26.421Z,11.37
2019-01-13T17:23:58.860Z,12.13
2019-01-13T17:26:30.067Z,12.37
2019-01-13T17:29:00.992Z,11.97
2019-01-13T17:31:33.034Z,11.30
2019-01-13T17:34:04.314Z,12.37
2019-01-13T17:36:35.305Z,12.10
2019-01-13T17:39:08.147Z,12.87
2019-01-13T17:41:39.341Z,12.80
2019-01-13T17:44:10.264Z,12.73
2019-01-13T17:46:41.200Z,12.97
2019-01-13T17:49:12.132Z,13.37
2019-01-13T17:51:43.072Z,13.57
2019-01-13T17:54:14.135Z,14.67
2019-01-13T17:56:45.152Z,14.43
2019-01-13T17:59:16.108Z,13.40
2019-01-13T18:01:51.025Z,14.73
2019-01-13T18:04:21.962Z,14.00
2019-01-13T18:06:52.900Z,14.67
2019-01-13T18:09:23.787Z,13.50
2019-01-13T18:11:54.738Z,13.50
2019-01-13T18:14:25.690Z,13.97
2019-01-13T18:16:56.633Z,13.63
2019-01-13T18:19:27.605Z,12.83
2019-01-13T18:21:58.572Z,12.90
2019-01-13T18:24:29.525Z,13.60
2019-01-13T18:27:00.467Z,13.70
2019-01-13T18:29:31.446Z,12.60
2019-01-13T18:32:02.393Z,13.43
2019-01-13T18:34:33.297Z,11.90
2019-01-13T18:37:04.242Z,11.67
2019-01-13T18:39:35.148Z,10.93
2019-01-13T18:42:06.110Z,11.13
2019-01-13T18:44:37.028Z,10.87
2019-01-13T18:47:08.000Z,10.00
2019-01-13T18:49:38.989Z,9.90
2019-01-13T18:52:09.889Z,9.40
2019-01-13T18:54:40.891Z,9.47
2019-01-13T18:57:11.796Z,9.20
2019-01-13T18:59:42.778Z,9.47
2019-01-13T19:02:13.710Z,9.50
2019-01-13T19:04:44.741Z,9.30
2019-01-13T19:07:15.653Z,10.13
2019-01-13T19:09:46.558Z,9.17
2019-01-13T19:12:17.475Z,9.27
2019-01-13T19:14:54.726Z,9.63
2019-01-13T19:17:28.592Z,9.50
2019-01-13T19:20:02.271Z,9.37
2019-01-13T19:22:35.000Z,9.67
2019-01-13T19:25:12.630Z,9.20
2019-01-13T19:27:43.601Z,9.50
2019-01-13T19:30:15.255Z,11.57
2019-01-13T19:32:46.259Z,9.50
2019-01-13T19:35:17.337Z,9.40
2019-01-13T19:37:48.328Z,15.30
2019-01-13T19:40:19.403Z,13.00
2019-01-13T19:42:50.397Z,20.43
2019-01-13T19:45:22.010Z,9.90
2019-01-13T19:47:53.140Z,9.80
2019-01-13T19:50:26.205Z,9.43
2019-01-13T19:52:57.234Z,8.90
2019-01-13T19:55:28.168Z,9.60
2019-01-13T19:57:59.212Z,10.17
2019-01-13T20:00:35.180Z,10.67
2019-01-13T20:03:06.837Z,10.70
2019-01-13T20:05:37.846Z,10.20
2019-01-13T20:08:08.907Z,11.10
2019-01-13T20:10:39.900Z,8.20
2019-01-13T20:13:10.920Z,5.20
2019-01-13T20:15:41.879Z,2.70
2019-01-13T20:18:12.898Z,3.30
2019-01-13T20:20:43.881Z,3.30
2019-01-13T20:23:14.833Z,2.80
2019-01-13T20:25:45.852Z,3.07
2019-01-13T20:28:17.936Z,3.50
2019-01-13T20:30:48.963Z,3.10
2019-01-13T20:33:20.020Z,2.60
2019-01-13T20:35:51.360Z,2.70
2019-01-13T20:38:22.361Z,2.43
2019-01-13T20:40:53.387Z,2.30
2019-01-13T20:43:24.368Z,2.10
2019-01-13T20:45:55.297Z,1.83
2019-01-13T20:48:26.244Z,1.60
2019-01-13T20:50:57.263Z,1.00
2019-01-13T20:53:28.304Z,1.00
2019-01-13T20:55:59.270Z,1.00
2019-01-13T20:58:30.283Z,1.10
2019-01-13T21:01:01.353Z,1.40
2019-01-13T21:03:32.353Z,1.23
2019-01-13T21:06:03.355Z,1.60
2019-01-13T21:08:34.365Z,1.30
2019-01-13T21:11:05.433Z,2.60
2019-01-13T21:13:36.477Z,2.17
2019-01-13T21:16:07.434Z,1.50
2019-01-13T21:18:38.498Z,1.90
2019-01-13T21:21:09.504Z,1.40
2019-01-13T21:23:40.605Z,1.90
2019-01-13T21:26:11.546Z,1.67
2019-01-13T21:28:42.779Z,2.17
2019-01-13T21:31:13.782Z,1.50
2019-01-13T21:33:44.764Z,1.40
2019-01-13T21:36:15.825Z,1.40
2019-01-13T21:38:46.828Z,1.17
2019-01-13T21:41:17.758Z,2.07
2019-01-13T21:43:48.801Z,1.90
2019-01-13T21:46:19.784Z,2.50
2019-01-13T21:48:50.797Z,1.80
2019-01-13T21:51:21.773Z,1.40
2019-01-13T21:53:52.815Z,1.50
2019-01-13T21:56:23.924Z,1.30
2019-01-13T21:58:54.964Z,1.77
2019-01-13T22:01:26.234Z,1.23
2019-01-13T22:03:57.743Z,1.43
2019-01-13T22:06:28.830Z,1.50
2019-01-13T22:09:00.126Z,1.93
2019-01-13T22:11:32.663Z,1.93
2019-01-13T22:14:03.626Z,2.00
2019-01-13T22:16:34.632Z,1.70
2019-01-13T22:19:05.547Z,1.50
2019-01-13T22:21:36.515Z,1.93
2019-01-13T22:24:07.649Z,2.13
2019-01-13T22:26:38.721Z,2.30
2019-01-13T22:29:09.661Z,1.90
2019-01-13T22:31:40.727Z,2.33
2019-01-13T22:34:12.741Z,2.30
2019-01-13T22:36:43.676Z,1.87
2019-01-13T22:39:14.642Z,2.07
2019-01-13T22:41:45.558Z,2.10
2019-01-13T22:44:16.487Z,2.30
2019-01-13T22:46:47.463Z,2.20
2019-01-13T22:49:18.395Z,2.43
2019-01-13T22:51:49.452Z,2.20
2019-01-13T22:54:20.359Z,2.53
2019-01-13T22:56:51.470Z,2.20
2019-01-13T22:59:22.368Z,2.47
2019-01-13T23:01:53.399Z,3.00
2019-01-13T23:04:24.385Z,2.60
2019-01-13T23:06:55.293Z,2.60
2019-01-13T23:09:26.198Z,2.00
2019-01-13T23:11:57.226Z,3.17
2019-01-13T23:14:28.154Z,2.90
2019-01-13T23:16:59.279Z,2.70
2019-01-13T23:19:31.609Z,2.37
2019-01-13T23:22:02.508Z,2.60
2019-01-13T23:24:33.543Z,2.23
2019-01-13T23:27:04.442Z,2.27
2019-01-13T23:29:35.483Z,2.30
2019-01-13T23:32:06.465Z,2.23
2019-01-13T23:34:37.419Z,2.07
2019-01-13T23:37:08.374Z,2.27
2019-01-13T23:39:39.294Z,2.27
2019-01-13T23:42:10.671Z,1.53
2019-01-13T23:44:41.591Z,1.67
2019-01-13T23:47:12.531Z,1.77
2019-01-13T23:49:43.452Z,2.17
2019-01-13T23:52:14.389Z,1.60
2019-01-13T23:54:45.323Z,1.43
2019-01-13T23:57:16.257Z,1.37
2019-01-13T23:59:47.165Z,1.53
